sensor_id;sensor_type;location;lat;lon;timestamp;pressure;altitude;pressure_sealevel;temperature;humidity
113;BME280;45999;48.808;9.182;2023-06-22T00:00:53;98115.84;;;21.23;100.00
113;BME280;45999;48.808;9.182;2023-06-22T00:03:21;98102.66;;;21.17;100.00
113;BME280;45999;48.808;9.182;2023-06-22T00:05:49;98107.81;;;21.13;100.00
113;BME280;45999;48.808;9.182;2023-06-22T00:08:17;98120.53;;;21.13;100.00
113;BME280;45999;48.808;9.182;2023-06-22T00:10:44;98122.41;;;21.12;100.00
113;BME280;45999;48.808;9.182;2023-06-22T00:13:12;98120.81;;;21.11;100.00
113;BME280;45999;48.808;9.182;2023-06-22T00:15:41;98112.66;;;21.16;100.00
113;BME280;45999;48.808;9.182;2023-06-22T00:18:09;98114.03;;;21.14;100.00
113;BME280;45999;48.808;9.182;2023-06-22T00:20:36;98110.81;;;21.12;100.00
113;BME280;45999;48.808;9.182;2023-06-22T00:23:04;98112.91;;;21.15;100.00
113;BME280;45999;48.808;9.182;2023-06-22T00:25:42;98126.16;;;21.16;100.00
113;BME280;45999;48.808;9.182;2023-06-22T00:28:08;98126.22;;;21.11;100.00
113;BME280;45999;48.808;9.182;2023-06-22T00:30:35;98115.41;;;21.11;100.00
113;BME280;45999;48.808;9.182;2023-06-22T00:33:01;98120.84;;;21.06;100.00
113;BME280;45999;48.808;9.182;2023-06-22T00:35:28;98110.31;;;21.05;100.00
113;BME280;45999;48.808;9.182;2023-06-22T00:37:56;98111.13;;;21.05;100.00
113;BME280;45999;48.808;9.182;2023-06-22T00:40:26;98106.56;;;21.01;100.00
113;BME280;45999;48.808;9.182;2023-06-22T00:42:53;98106.09;;;20.94;100.00
113;BME280;45999;48.808;9.182;2023-06-22T00:45:20;98109.09;;;20.92;100.00
113;BME280;45999;48.808;9.182;2023-06-22T00:47:48;98104.78;;;20.86;100.00
113;BME280;45999;48.808;9.182;2023-06-22T00:50:19;98101.56;;;20.84;100.00
113;BME280;45999;48.808;9.182;2023-06-22T00:52:51;98106.22;;;20.79;100.00
113;BME280;45999;48.808;9.182;2023-06-22T00:55:19;98117.31;;;20.77;100.00
113;BME280;45999;48.808;9.182;2023-06-22T00:57:46;98135.75;;;20.65;100.00
113;BME280;45999;48.808;9.182;2023-06-22T01:00:14;98144.72;;;20.61;100.00
113;BME280;45999;48.808;9.182;2023-06-22T01:02:43;98138.66;;;20.79;100.00
113;BME280;45999;48.808;9.182;2023-06-22T01:05:14;98126.47;;;20.76;100.00
113;BME280;45999;48.808;9.182;2023-06-22T01:11:09;98192.66;;;20.84;100.00
113;BME280;45999;48.808;9.182;2023-06-22T01:14:15;98159.41;;;20.83;100.00
113;BME280;45999;48.808;9.182;2023-06-22T01:16:45;98122.16;;;20.75;100.00
113;BME280;45999;48.808;9.182;2023-06-22T01:19:35;98150.88;;;20.66;100.00
113;BME280;45999;48.808;9.182;2023-06-22T01:22:05;98169.78;;;20.66;100.00
113;BME280;45999;48.808;9.182;2023-06-22T01:25:07;98144.38;;;20.72;100.00
113;BME280;45999;48.808;9.182;2023-06-22T01:30:07;98121.69;;;20.68;100.00
113;BME280;45999;48.808;9.182;2023-06-22T01:32:37;98126.25;;;20.73;100.00
113;BME280;45999;48.808;9.182;2023-06-22T01:35:07;98131.56;;;20.83;100.00
113;BME280;45999;48.808;9.182;2023-06-22T01:37:34;98122.63;;;20.87;100.00
113;BME280;45999;48.808;9.182;2023-06-22T01:40:02;98129.47;;;20.75;100.00
113;BME280;45999;48.808;9.182;2023-06-22T01:42:31;98133.59;;;20.62;100.00
113;BME280;45999;48.808;9.182;2023-06-22T01:44:58;98140.34;;;20.70;100.00
113;BME280;45999;48.808;9.182;2023-06-22T01:47:25;98133.44;;;20.87;100.00
113;BME280;45999;48.808;9.182;2023-06-22T01:49:53;98122.91;;;20.86;100.00
113;BME280;45999;48.808;9.182;2023-06-22T01:52:20;98125.13;;;20.79;100.00
113;BME280;45999;48.808;9.182;2023-06-22T01:54:47;98145.16;;;20.73;100.00
113;BME280;45999;48.808;9.182;2023-06-22T01:57:14;98137.00;;;20.78;100.00
113;BME280;45999;48.808;9.182;2023-06-22T02:00:03;98129.19;;;20.76;100.00
113;BME280;45999;48.808;9.182;2023-06-22T02:02:43;98137.88;;;20.73;100.00
113;BME280;45999;48.808;9.182;2023-06-22T02:05:11;98138.22;;;20.62;100.00
113;BME280;45999;48.808;9.182;2023-06-22T02:07:46;98144.13;;;20.64;100.00
113;BME280;45999;48.808;9.182;2023-06-22T02:10:16;98141.44;;;20.64;100.00
113;BME280;45999;48.808;9.182;2023-06-22T02:12:45;98147.44;;;20.56;100.00
113;BME280;45999;48.808;9.182;2023-06-22T02:15:12;98145.78;;;20.60;100.00
113;BME280;45999;48.808;9.182;2023-06-22T02:17:39;98140.66;;;20.58;100.00
113;BME280;45999;48.808;9.182;2023-06-22T02:20:13;98145.50;;;20.61;100.00
113;BME280;45999;48.808;9.182;2023-06-22T02:22:40;98145.69;;;20.75;100.00
113;BME280;45999;48.808;9.182;2023-06-22T02:25:07;98157.56;;;20.74;100.00
113;BME280;45999;48.808;9.182;2023-06-22T02:27:34;98153.28;;;20.68;100.00
113;BME280;45999;48.808;9.182;2023-06-22T02:30:00;98143.84;;;20.65;100.00
113;BME280;45999;48.808;9.182;2023-06-22T02:32:27;98136.03;;;20.64;100.00
113;BME280;45999;48.808;9.182;2023-06-22T02:34:53;98123.94;;;20.56;100.00
113;BME280;45999;48.808;9.182;2023-06-22T02:37:19;98127.53;;;20.42;100.00
113;BME280;45999;48.808;9.182;2023-06-22T02:39:46;98122.13;;;20.42;100.00
113;BME280;45999;48.808;9.182;2023-06-22T02:42:12;98124.34;;;20.35;100.00
113;BME280;45999;48.808;9.182;2023-06-22T02:44:38;98126.53;;;20.28;100.00
113;BME280;45999;48.808;9.182;2023-06-22T02:47:05;98116.31;;;20.25;100.00
113;BME280;45999;48.808;9.182;2023-06-22T02:49:31;98111.19;;;20.23;100.00
113;BME280;45999;48.808;9.182;2023-06-22T02:51:58;98109.88;;;20.21;100.00
113;BME280;45999;48.808;9.182;2023-06-22T02:54:24;98111.47;;;20.22;100.00
113;BME280;45999;48.808;9.182;2023-06-22T02:56:50;98105.53;;;20.25;100.00
113;BME280;45999;48.808;9.182;2023-06-22T02:59:17;98104.97;;;20.23;100.00
113;BME280;45999;48.808;9.182;2023-06-22T03:01:48;98110.97;;;20.15;100.00
113;BME280;45999;48.808;9.182;2023-06-22T03:04:15;98109.88;;;20.06;100.00
113;BME280;45999;48.808;9.182;2023-06-22T03:06:42;98099.66;;;20.08;100.00
113;BME280;45999;48.808;9.182;2023-06-22T03:09:08;98096.94;;;20.08;100.00
113;BME280;45999;48.808;9.182;2023-06-22T03:11:34;98104.50;;;20.06;100.00
113;BME280;45999;48.808;9.182;2023-06-22T03:14:01;98104.22;;;20.07;100.00
113;BME280;45999;48.808;9.182;2023-06-22T03:16:27;98103.16;;;20.08;100.00
113;BME280;45999;48.808;9.182;2023-06-22T03:18:54;98099.66;;;20.08;100.00
113;BME280;45999;48.808;9.182;2023-06-22T03:21:22;98098.56;;;20.14;100.00
113;BME280;45999;48.808;9.182;2023-06-22T03:23:49;98099.06;;;20.21;100.00
113;BME280;45999;48.808;9.182;2023-06-22T03:26:18;98090.94;;;20.26;100.00
113;BME280;45999;48.808;9.182;2023-06-22T03:28:45;98092.03;;;20.20;100.00
113;BME280;45999;48.808;9.182;2023-06-22T03:31:12;98102.03;;;20.19;100.00
113;BME280;45999;48.808;9.182;2023-06-22T03:33:38;98102.81;;;20.20;100.00
113;BME280;45999;48.808;9.182;2023-06-22T03:36:04;98100.16;;;20.15;100.00
113;BME280;45999;48.808;9.182;2023-06-22T03:38:31;98096.38;;;20.21;100.00
113;BME280;45999;48.808;9.182;2023-06-22T03:40:57;98096.44;;;20.11;100.00
113;BME280;45999;48.808;9.182;2023-06-22T03:43:24;98098.56;;;20.14;100.00
113;BME280;45999;48.808;9.182;2023-06-22T03:45:50;98092.66;;;19.97;100.00
113;BME280;45999;48.808;9.182;2023-06-22T03:48:16;98087.28;;;19.97;100.00
113;BME280;45999;48.808;9.182;2023-06-22T03:50:43;98086.47;;;19.96;100.00
113;BME280;45999;48.808;9.182;2023-06-22T03:53:10;98091.34;;;19.89;100.00
113;BME280;45999;48.808;9.182;2023-06-22T03:55:37;98084.59;;;19.92;100.00
113;BME280;45999;48.808;9.182;2023-06-22T03:58:03;98074.59;;;19.97;100.00
113;BME280;45999;48.808;9.182;2023-06-22T04:00:31;98081.88;;;19.97;100.00
113;BME280;45999;48.808;9.182;2023-06-22T04:02:58;98089.66;;;20.08;100.00
113;BME280;45999;48.808;9.182;2023-06-22T04:05:24;98089.41;;;20.00;100.00
113;BME280;45999;48.808;9.182;2023-06-22T04:07:50;98085.09;;;20.09;100.00
113;BME280;45999;48.808;9.182;2023-06-22T04:10:17;98085.66;;;19.96;100.00
113;BME280;45999;48.808;9.182;2023-06-22T04:12:43;98081.34;;;19.95;100.00
113;BME280;45999;48.808;9.182;2023-06-22T04:15:10;98073.78;;;19.97;100.00
113;BME280;45999;48.808;9.182;2023-06-22T04:17:37;98077.00;;;20.04;100.00
113;BME280;45999;48.808;9.182;2023-06-22T04:20:03;98074.56;;;20.02;100.00
113;BME280;45999;48.808;9.182;2023-06-22T04:22:30;98069.16;;;20.02;100.00
113;BME280;45999;48.808;9.182;2023-06-22T04:24:56;98072.13;;;20.01;100.00
113;BME280;45999;48.808;9.182;2023-06-22T04:27:23;98072.69;;;20.03;100.00
113;BME280;45999;48.808;9.182;2023-06-22T04:29:49;98073.22;;;20.00;100.00
113;BME280;45999;48.808;9.182;2023-06-22T04:32:16;98068.06;;;20.08;100.00
113;BME280;45999;48.808;9.182;2023-06-22T04:34:43;98071.03;;;20.07;100.00
113;BME280;45999;48.808;9.182;2023-06-22T04:37:10;98065.66;;;20.07;100.00
113;BME280;45999;48.808;9.182;2023-06-22T04:39:40;98068.78;;;20.24;100.00
113;BME280;45999;48.808;9.182;2023-06-22T04:42:06;98063.34;;;20.29;100.00
113;BME280;45999;48.808;9.182;2023-06-22T04:44:33;98062.72;;;20.42;100.00
113;BME280;45999;48.808;9.182;2023-06-22T04:47:02;98057.84;;;20.44;100.00
113;BME280;45999;48.808;9.182;2023-06-22T04:49:33;98059.34;;;20.60;100.00
113;BME280;45999;48.808;9.182;2023-06-22T04:52:02;98060.38;;;20.64;100.00
113;BME280;45999;48.808;9.182;2023-06-22T04:54:29;98047.38;;;20.71;100.00
113;BME280;45999;48.808;9.182;2023-06-22T04:57:05;98051.03;;;20.85;100.00
113;BME280;45999;48.808;9.182;2023-06-22T04:59:35;98048.94;;;20.77;100.00
113;BME280;45999;48.808;9.182;2023-06-22T05:02:04;98057.22;;;20.85;100.00
113;BME280;45999;48.808;9.182;2023-06-22T05:04:31;98044.22;;;20.92;100.00
113;BME280;45999;48.808;9.182;2023-06-22T05:06:59;98045.28;;;20.96;100.00
113;BME280;45999;48.808;9.182;2023-06-22T05:09:25;98040.47;;;21.17;100.00
113;BME280;45999;48.808;9.182;2023-06-22T05:11:52;98047.78;;;21.40;100.00
113;BME280;45999;48.808;9.182;2023-06-22T05:14:19;98055.69;;;21.55;100.00
113;BME280;45999;48.808;9.182;2023-06-22T05:16:45;98044.66;;;21.75;100.00
113;BME280;45999;48.808;9.182;2023-06-22T05:19:12;98044.25;;;22.05;100.00
113;BME280;45999;48.808;9.182;2023-06-22T05:21:38;98038.31;;;22.90;100.00
113;BME280;45999;48.808;9.182;2023-06-22T05:24:05;98036.47;;;22.54;100.00
113;BME280;45999;48.808;9.182;2023-06-22T05:26:32;98037.22;;;23.05;100.00
113;BME280;45999;48.808;9.182;2023-06-22T05:29:01;98033.75;;;22.86;100.00
113;BME280;45999;48.808;9.182;2023-06-22T05:31:28;98032.97;;;22.53;100.00
113;BME280;45999;48.808;9.182;2023-06-22T05:33:55;98034.56;;;22.36;100.00
113;BME280;45999;48.808;9.182;2023-06-22T05:36:22;98033.66;;;22.45;100.00
113;BME280;45999;48.808;9.182;2023-06-22T05:38:51;98016.88;;;22.06;100.00
113;BME280;45999;48.808;9.182;2023-06-22T05:41:17;98016.50;;;22.13;100.00
113;BME280;45999;48.808;9.182;2023-06-22T05:43:43;98031.22;;;22.07;100.00
113;BME280;45999;48.808;9.182;2023-06-22T05:46:10;98033.03;;;22.11;100.00
113;BME280;45999;48.808;9.182;2023-06-22T05:48:36;98031.53;;;22.05;100.00
113;BME280;45999;48.808;9.182;2023-06-22T05:51:03;98034.66;;;21.94;100.00
113;BME280;45999;48.808;9.182;2023-06-22T05:53:29;98043.16;;;21.87;100.00
113;BME280;45999;48.808;9.182;2023-06-22T05:55:55;98028.53;;;22.07;100.00
113;BME280;45999;48.808;9.182;2023-06-22T05:58:22;98025.16;;;21.96;100.00
113;BME280;45999;48.808;9.182;2023-06-22T06:00:48;98024.34;;;21.96;100.00
113;BME280;45999;48.808;9.182;2023-06-22T06:03:15;98022.41;;;21.78;100.00
113;BME280;45999;48.808;9.182;2023-06-22T06:05:42;98029.25;;;21.94;100.00
113;BME280;45999;48.808;9.182;2023-06-22T06:08:09;98016.75;;;21.98;100.00
113;BME280;45999;48.808;9.182;2023-06-22T06:10:36;98022.59;;;21.86;100.00
113;BME280;45999;48.808;9.182;2023-06-22T06:13:02;98018.63;;;21.79;100.00
113;BME280;45999;48.808;9.182;2023-06-22T06:15:30;98017.97;;;21.87;100.00
113;BME280;45999;48.808;9.182;2023-06-22T06:17:57;98006.69;;;21.98;100.00
113;BME280;45999;48.808;9.182;2023-06-22T06:20:24;98006.13;;;22.01;100.00
113;BME280;45999;48.808;9.182;2023-06-22T06:22:52;98018.19;;;22.09;100.00
113;BME280;45999;48.808;9.182;2023-06-22T06:25:19;98009.03;;;22.23;100.00
113;BME280;45999;48.808;9.182;2023-06-22T06:27:47;98012.75;;;22.46;100.00
113;BME280;45999;48.808;9.182;2023-06-22T06:30:15;98014.13;;;22.62;100.00
113;BME280;45999;48.808;9.182;2023-06-22T06:32:43;98017.69;;;22.76;100.00
113;BME280;45999;48.808;9.182;2023-06-22T06:35:11;98012.94;;;22.68;100.00
113;BME280;45999;48.808;9.182;2023-06-22T06:37:44;98014.50;;;22.87;100.00
113;BME280;45999;48.808;9.182;2023-06-22T06:40:11;98017.09;;;22.92;100.00
113;BME280;45999;48.808;9.182;2023-06-22T06:42:44;98019.63;;;22.89;100.00
113;BME280;45999;48.808;9.182;2023-06-22T06:45:12;98020.72;;;22.88;100.00
113;BME280;45999;48.808;9.182;2023-06-22T06:47:39;98021.31;;;22.98;100.00
113;BME280;45999;48.808;9.182;2023-06-22T06:50:06;98032.06;;;22.90;100.00
113;BME280;45999;48.808;9.182;2023-06-22T06:52:33;98025.63;;;22.86;100.00
113;BME280;45999;48.808;9.182;2023-06-22T06:55:00;98031.00;;;23.18;100.00
113;BME280;45999;48.808;9.182;2023-06-22T06:57:27;98021.78;;;23.19;100.00
113;BME280;45999;48.808;9.182;2023-06-22T06:59:55;98021.72;;;23.24;100.00
113;BME280;45999;48.808;9.182;2023-06-22T07:02:23;98024.78;;;23.17;100.00
113;BME280;45999;48.808;9.182;2023-06-22T07:04:49;98016.59;;;23.22;100.00
113;BME280;45999;48.808;9.182;2023-06-22T07:07:16;98023.47;;;23.15;100.00
113;BME280;45999;48.808;9.182;2023-06-22T07:09:44;98019.81;;;23.38;100.00
113;BME280;45999;48.808;9.182;2023-06-22T07:12:10;98012.56;;;23.47;100.00
113;BME280;45999;48.808;9.182;2023-06-22T07:14:37;98012.94;;;23.67;100.00
113;BME280;45999;48.808;9.182;2023-06-22T07:17:03;98002.13;;;24.03;100.00
113;BME280;45999;48.808;9.182;2023-06-22T07:19:32;97994.38;;;24.10;96.90
113;BME280;45999;48.808;9.182;2023-06-22T07:21:59;97992.53;;;24.19;96.35
113;BME280;45999;48.808;9.182;2023-06-22T07:24:25;97990.84;;;24.09;94.92
113;BME280;45999;48.808;9.182;2023-06-22T07:26:52;97978.69;;;24.29;95.00
113;BME280;45999;48.808;9.182;2023-06-22T07:29:19;97975.69;;;24.30;97.19
113;BME280;45999;48.808;9.182;2023-06-22T07:31:47;97969.47;;;24.38;93.05
113;BME280;45999;48.808;9.182;2023-06-22T07:34:14;97973.00;;;24.39;94.24
113;BME280;45999;48.808;9.182;2023-06-22T07:36:41;97976.13;;;24.46;93.30
113;BME280;45999;48.808;9.182;2023-06-22T07:39:07;97970.69;;;24.46;93.20
113;BME280;45999;48.808;9.182;2023-06-22T07:41:33;97960.91;;;24.45;93.72
113;BME280;45999;48.808;9.182;2023-06-22T07:44:00;97954.91;;;24.34;94.07
113;BME280;45999;48.808;9.182;2023-06-22T07:46:26;97956.63;;;24.52;93.29
113;BME280;45999;48.808;9.182;2023-06-22T07:48:55;97952.34;;;24.82;90.63
113;BME280;45999;48.808;9.182;2023-06-22T07:51:22;97947.47;;;24.70;91.69
113;BME280;45999;48.808;9.182;2023-06-22T07:53:48;97938.34;;;24.97;89.27
113;BME280;45999;48.808;9.182;2023-06-22T07:56:15;97935.53;;;25.19;89.56
113;BME280;45999;48.808;9.182;2023-06-22T07:58:45;97934.03;;;24.96;89.58
113;BME280;45999;48.808;9.182;2023-06-22T08:01:12;97929.44;;;25.05;88.54
113;BME280;45999;48.808;9.182;2023-06-22T08:03:39;97938.88;;;25.16;89.94
113;BME280;45999;48.808;9.182;2023-06-22T08:06:07;97934.91;;;25.22;86.41
113;BME280;45999;48.808;9.182;2023-06-22T08:08:35;97944.75;;;25.40;85.95
113;BME280;45999;48.808;9.182;2023-06-22T08:11:01;97965.09;;;25.03;86.70
113;BME280;45999;48.808;9.182;2023-06-22T08:13:32;97962.19;;;25.00;87.49
113;BME280;45999;48.808;9.182;2023-06-22T08:15:59;97974.16;;;24.90;86.97
113;BME280;45999;48.808;9.182;2023-06-22T08:18:26;97979.56;;;25.21;87.06
113;BME280;45999;48.808;9.182;2023-06-22T08:20:52;97982.03;;;25.31;86.87
113;BME280;45999;48.808;9.182;2023-06-22T08:23:21;97969.06;;;25.36;86.63
113;BME280;45999;48.808;9.182;2023-06-22T08:25:50;97977.16;;;25.67;85.89
113;BME280;45999;48.808;9.182;2023-06-22T08:28:17;97988.66;;;25.55;84.23
113;BME280;45999;48.808;9.182;2023-06-22T08:30:43;97992.16;;;25.47;83.38
113;BME280;45999;48.808;9.182;2023-06-22T08:33:10;97992.00;;;25.44;84.61
113;BME280;45999;48.808;9.182;2023-06-22T08:35:37;97999.25;;;25.57;85.19
113;BME280;45999;48.808;9.182;2023-06-22T08:38:04;98007.63;;;25.77;81.37
113;BME280;45999;48.808;9.182;2023-06-22T08:40:30;98004.69;;;25.65;83.01
113;BME280;45999;48.808;9.182;2023-06-22T08:42:57;97999.09;;;25.62;85.18
113;BME280;45999;48.808;9.182;2023-06-22T08:45:23;97985.69;;;25.91;83.73
113;BME280;45999;48.808;9.182;2023-06-22T08:47:50;97979.13;;;26.09;80.46
113;BME280;45999;48.808;9.182;2023-06-22T08:50:16;97977.03;;;25.89;80.81
113;BME280;45999;48.808;9.182;2023-06-22T08:52:43;97977.84;;;26.40;82.03
113;BME280;45999;48.808;9.182;2023-06-22T08:55:10;97967.91;;;26.44;78.21
113;BME280;45999;48.808;9.182;2023-06-22T08:57:37;97971.09;;;26.46;78.97
113;BME280;45999;48.808;9.182;2023-06-22T09:00:06;97967.44;;;26.59;80.35
113;BME280;45999;48.808;9.182;2023-06-22T09:02:40;97970.94;;;26.68;77.38
113;BME280;45999;48.808;9.182;2023-06-22T09:05:06;97973.66;;;26.68;78.10
113;BME280;45999;48.808;9.182;2023-06-22T09:07:33;97978.63;;;26.75;76.62
113;BME280;45999;48.808;9.182;2023-06-22T09:09:59;97975.13;;;26.66;76.78
113;BME280;45999;48.808;9.182;2023-06-22T09:12:25;97965.84;;;27.04;76.97
113;BME280;45999;48.808;9.182;2023-06-22T09:14:53;97957.13;;;27.28;76.86
113;BME280;45999;48.808;9.182;2023-06-22T09:17:19;97963.63;;;27.07;77.20
113;BME280;45999;48.808;9.182;2023-06-22T09:19:46;97981.94;;;26.89;76.63
113;BME280;45999;48.808;9.182;2023-06-22T09:22:12;97987.31;;;26.60;76.64
113;BME280;45999;48.808;9.182;2023-06-22T09:24:39;97994.13;;;26.91;78.22
113;BME280;45999;48.808;9.182;2023-06-22T09:27:06;97980.78;;;27.45;74.01
113;BME280;45999;48.808;9.182;2023-06-22T09:29:32;97971.09;;;27.76;72.67
113;BME280;45999;48.808;9.182;2023-06-22T09:32:02;97955.97;;;28.08;70.74
113;BME280;45999;48.808;9.182;2023-06-22T09:34:30;97949.13;;;27.73;71.13
113;BME280;45999;48.808;9.182;2023-06-22T09:36:57;97951.97;;;27.85;70.56
113;BME280;45999;48.808;9.182;2023-06-22T09:39:25;97943.13;;;27.59;69.68
113;BME280;45999;48.808;9.182;2023-06-22T09:41:52;97936.38;;;27.56;70.58
113;BME280;45999;48.808;9.182;2023-06-22T09:44:18;97934.13;;;27.79;70.47
113;BME280;45999;48.808;9.182;2023-06-22T09:46:44;97932.47;;;28.48;67.02
113;BME280;45999;48.808;9.182;2023-06-22T09:49:11;97933.41;;;28.52;68.13
113;BME280;45999;48.808;9.182;2023-06-22T09:51:37;97938.38;;;28.82;68.56
113;BME280;45999;48.808;9.182;2023-06-22T09:54:04;97924.84;;;28.53;68.06
113;BME280;45999;48.808;9.182;2023-06-22T09:56:30;97912.38;;;28.88;66.56
113;BME280;45999;48.808;9.182;2023-06-22T09:58:56;97910.59;;;29.04;64.63
113;BME280;45999;48.808;9.182;2023-06-22T10:01:23;97899.53;;;29.01;65.52
113;BME280;45999;48.808;9.182;2023-06-22T10:03:51;97906.31;;;28.83;66.54
113;BME280;45999;48.808;9.182;2023-06-22T10:06:19;97899.88;;;29.11;66.04
113;BME280;45999;48.808;9.182;2023-06-22T10:08:46;97885.25;;;29.43;66.67
113;BME280;45999;48.808;9.182;2023-06-22T10:11:13;97898.72;;;29.12;66.47
113;BME280;45999;48.808;9.182;2023-06-22T10:13:39;97896.91;;;29.04;66.86
113;BME280;45999;48.808;9.182;2023-06-22T10:16:06;97902.78;;;28.82;66.83
113;BME280;45999;48.808;9.182;2023-06-22T10:18:32;97887.25;;;28.50;67.42
113;BME280;45999;48.808;9.182;2023-06-22T10:20:58;97868.66;;;28.23;68.43
113;BME280;45999;48.808;9.182;2023-06-22T10:23:25;97880.09;;;28.37;67.70
113;BME280;45999;48.808;9.182;2023-06-22T10:25:51;97882.81;;;28.70;67.10
113;BME280;45999;48.808;9.182;2023-06-22T10:28:17;97882.38;;;28.80;66.78
113;BME280;45999;48.808;9.182;2023-06-22T10:30:44;97876.84;;;29.00;65.48
113;BME280;45999;48.808;9.182;2023-06-22T10:33:11;97868.84;;;29.19;66.79
113;BME280;45999;48.808;9.182;2023-06-22T10:35:38;97873.13;;;29.44;64.92
113;BME280;45999;48.808;9.182;2023-06-22T10:38:05;97867.78;;;29.48;64.72
113;BME280;45999;48.808;9.182;2023-06-22T10:40:32;97856.25;;;29.54;65.63
113;BME280;45999;48.808;9.182;2023-06-22T10:42:59;97853.16;;;29.95;61.93
113;BME280;45999;48.808;9.182;2023-06-22T10:45:25;97847.03;;;29.86;62.19
113;BME280;45999;48.808;9.182;2023-06-22T10:47:52;97839.69;;;29.51;61.78
113;BME280;45999;48.808;9.182;2023-06-22T10:50:18;97841.41;;;29.43;61.89
113;BME280;45999;48.808;9.182;2023-06-22T10:52:45;97841.44;;;29.31;64.69
113;BME280;45999;48.808;9.182;2023-06-22T10:55:11;97845.75;;;29.44;63.80
113;BME280;45999;48.808;9.182;2023-06-22T10:57:38;97846.06;;;29.55;63.12
113;BME280;45999;48.808;9.182;2023-06-22T11:00:08;97847.81;;;29.35;63.99
113;BME280;45999;48.808;9.182;2023-06-22T11:02:36;97842.56;;;29.42;64.98
113;BME280;45999;48.808;9.182;2023-06-22T11:05:03;97839.47;;;29.44;64.11
113;BME280;45999;48.808;9.182;2023-06-22T11:07:29;97834.03;;;29.32;65.24
113;BME280;45999;48.808;9.182;2023-06-22T11:09:56;97840.84;;;29.38;65.53
113;BME280;45999;48.808;9.182;2023-06-22T11:12:22;97837.31;;;29.49;65.09
113;BME280;45999;48.808;9.182;2023-06-22T11:14:49;97836.16;;;29.50;65.04
113;BME280;45999;48.808;9.182;2023-06-22T11:17:17;97844.38;;;29.50;64.16
113;BME280;45999;48.808;9.182;2023-06-22T11:19:44;97837.31;;;29.49;63.31
113;BME280;45999;48.808;9.182;2023-06-22T11:22:11;97851.06;;;29.01;64.98
113;BME280;45999;48.808;9.182;2023-06-22T11:24:37;97856.06;;;28.99;66.41
113;BME280;45999;48.808;9.182;2023-06-22T11:27:04;97846.94;;;28.95;66.34
113;BME280;45999;48.808;9.182;2023-06-22T11:29:30;97843.75;;;29.05;66.77
113;BME280;45999;48.808;9.182;2023-06-22T11:31:57;97836.06;;;28.87;67.40
113;BME280;45999;48.808;9.182;2023-06-22T11:34:23;97837.34;;;28.77;69.73
113;BME280;45999;48.808;9.182;2023-06-22T11:36:49;97827.53;;;28.88;68.16
113;BME280;45999;48.808;9.182;2023-06-22T11:39:16;97828.88;;;28.94;69.39
113;BME280;45999;48.808;9.182;2023-06-22T11:41:42;97844.66;;;29.09;67.15
113;BME280;45999;48.808;9.182;2023-06-22T11:44:08;97834.94;;;29.36;64.95
113;BME280;45999;48.808;9.182;2023-06-22T11:46:35;97828.63;;;29.47;63.02
113;BME280;45999;48.808;9.182;2023-06-22T11:49:02;97824.06;;;29.39;61.63
113;BME280;45999;48.808;9.182;2023-06-22T11:51:28;97829.44;;;29.48;62.57
113;BME280;45999;48.808;9.182;2023-06-22T11:53:56;97824.03;;;29.51;63.70
113;BME280;45999;48.808;9.182;2023-06-22T11:56:22;97813.69;;;29.57;62.75
113;BME280;45999;48.808;9.182;2023-06-22T11:58:49;97809.91;;;29.49;62.43
113;BME280;45999;48.808;9.182;2023-06-22T12:01:15;97829.78;;;29.34;64.09
113;BME280;45999;48.808;9.182;2023-06-22T12:03:41;97841.13;;;29.21;64.75
113;BME280;45999;48.808;9.182;2023-06-22T12:06:09;97839.28;;;29.25;65.47
113;BME280;45999;48.808;9.182;2023-06-22T12:08:35;97839.06;;;29.18;63.93
113;BME280;45999;48.808;9.182;2023-06-22T12:11:02;97847.59;;;29.28;65.15
113;BME280;45999;48.808;9.182;2023-06-22T12:13:28;97843.97;;;29.12;64.98
113;BME280;45999;48.808;9.182;2023-06-22T12:15:54;97844.34;;;29.11;63.36
113;BME280;45999;48.808;9.182;2023-06-22T12:18:21;97847.84;;;28.99;62.73
113;BME280;45999;48.808;9.182;2023-06-22T12:20:47;97840.31;;;29.08;62.23
113;BME280;45999;48.808;9.182;2023-06-22T12:23:14;97828.25;;;29.09;64.20
113;BME280;45999;48.808;9.182;2023-06-22T12:25:41;97825.03;;;29.07;64.45
113;BME280;45999;48.808;9.182;2023-06-22T12:28:07;97819.78;;;29.14;66.05
113;BME280;45999;48.808;9.182;2023-06-22T12:30:33;97822.53;;;29.14;65.86
113;BME280;45999;48.808;9.182;2023-06-22T12:33:00;97821.16;;;29.20;63.54
113;BME280;45999;48.808;9.182;2023-06-22T12:35:26;97834.03;;;29.32;60.88
113;BME280;45999;48.808;9.182;2023-06-22T12:37:52;97838.34;;;29.33;62.47
113;BME280;45999;48.808;9.182;2023-06-22T12:40:19;97841.88;;;29.33;61.55
113;BME280;45999;48.808;9.182;2023-06-22T12:42:45;97846.47;;;29.17;62.43
113;BME280;45999;48.808;9.182;2023-06-22T12:45:12;97847.97;;;29.03;62.90
113;BME280;45999;48.808;9.182;2023-06-22T12:47:40;97854.66;;;28.93;65.65
113;BME280;45999;48.808;9.182;2023-06-22T12:50:06;97847.50;;;28.89;64.88
113;BME280;45999;48.808;9.182;2023-06-22T12:52:33;97861.41;;;28.96;64.37
113;BME280;45999;48.808;9.182;2023-06-22T12:54:59;97862.44;;;29.03;63.15
113;BME280;45999;48.808;9.182;2023-06-22T12:57:26;97872.16;;;29.13;64.75
113;BME280;45999;48.808;9.182;2023-06-22T12:59:52;97872.38;;;29.20;64.72
113;BME280;45999;48.808;9.182;2023-06-22T13:02:18;97878.88;;;29.15;66.20
113;BME280;45999;48.808;9.182;2023-06-22T13:04:45;97869.84;;;29.15;66.78
113;BME280;45999;48.808;9.182;2023-06-22T13:07:11;97865.31;;;29.07;68.50
113;BME280;45999;48.808;9.182;2023-06-22T13:09:37;97859.47;;;29.08;68.31
113;BME280;45999;48.808;9.182;2023-06-22T13:12:04;97845.59;;;29.13;68.75
113;BME280;45999;48.808;9.182;2023-06-22T13:14:30;97846.25;;;28.98;68.40
113;BME280;45999;48.808;9.182;2023-06-22T13:16:57;97843.28;;;28.91;69.64
113;BME280;45999;48.808;9.182;2023-06-22T13:19:23;97841.56;;;28.87;70.25
113;BME280;45999;48.808;9.182;2023-06-22T13:21:51;97829.25;;;28.93;69.54